createdAt,value
2018-07-10T00:00:39.282Z,0
2018-07-10T00:01:39.294Z,0
2018-07-10T00:02:39.535Z,0
2018-07-10T00:03:39.272Z,0
2018-07-10T00:04:39.261Z,0
2018-07-10T00:05:39.524Z,0
2018-07-10T00:06:39.301Z,0
2018-07-10T00:07:38.756Z,0
2018-07-10T00:08:39.505Z,0
2018-07-10T00:09:39.493Z,0
2018-07-10T00:10:39.487Z,0
2018-07-10T00:11:39.527Z,0
2018-07-10T00:12:39.228Z,0
2018-07-10T00:13:39.225Z,0
2018-07-10T00:14:39.225Z,0
2018-07-10T00:15:39.478Z,0
2018-07-10T00:16:39.462Z,0
2018-07-10T00:17:39.459Z,0
2018-07-10T00:18:39.465Z,0
2018-07-10T00:19:39.446Z,0
2018-07-10T00:20:39.199Z,0
2018-07-10T00:21:39.451Z,0
2018-07-10T00:22:39.715Z,0
2018-07-10T00:23:39.188Z,0
2018-07-10T00:24:39.443Z,0
2018-07-10T00:25:39.176Z,0
2018-07-10T00:26:38.919Z,0
2018-07-10T00:27:39.176Z,0
2018-07-10T00:28:39.417Z,0
2018-07-10T00:29:38.915Z,0
2018-07-10T00:30:39.170Z,0
2018-07-10T00:31:39.407Z,0
2018-07-10T00:32:38.896Z,0
2018-07-10T00:33:39.394Z,0
2018-07-10T00:34:39.389Z,0
2018-07-10T00:35:39.415Z,0
2018-07-10T00:36:39.392Z,0
2018-07-10T00:37:39.396Z,0
2018-07-10T00:38:39.388Z,0
2018-07-10T00:39:39.370Z,0
2018-07-10T00:40:39.362Z,0
2018-07-10T00:41:39.361Z,0
2018-07-10T00:42:39.361Z,0
2018-07-10T00:43:39.375Z,0
2018-07-10T00:44:39.349Z,0
2018-07-10T00:45:39.094Z,0
2018-07-10T00:46:39.352Z,0
2018-07-10T00:47:38.836Z,0
2018-07-10T00:48:38.832Z,0
2018-07-10T00:49:39.332Z,0
2018-07-10T00:50:39.325Z,0
2018-07-10T00:51:39.333Z,0
2018-07-10T00:52:39.084Z,0
2018-07-10T00:53:39.559Z,0
2018-07-10T00:54:39.059Z,0
2018-07-10T00:55:39.318Z,0
2018-07-10T00:56:39.314Z,0
2018-07-10T00:57:39.053Z,0
2018-07-10T00:58:39.053Z,0
2018-07-10T00:59:38.786Z,0
2018-07-10T01:00:39.284Z,0
2018-07-10T01:01:39.029Z,0
2018-07-10T01:02:39.275Z,0
2018-07-10T01:03:39.070Z,0
2018-07-10T01:04:39.267Z,0
2018-07-10T01:05:39.265Z,0
2018-07-10T01:06:39.262Z,0
2018-07-10T01:07:38.765Z,0
2018-07-10T01:08:39.249Z,0
2018-07-10T01:09:38.993Z,0
2018-07-10T01:10:39.241Z,0
2018-07-10T01:11:39.261Z,0
2018-07-10T01:12:39.250Z,0
2018-07-10T01:13:38.977Z,0
2018-07-10T01:14:38.987Z,0
2018-07-10T01:15:39.229Z,0
2018-07-10T01:16:39.234Z,0
2018-07-10T01:17:39.248Z,0
2018-07-10T01:18:38.957Z,0
2018-07-10T01:19:39.217Z,0
2018-07-10T01:20:38.967Z,0
2018-07-10T01:21:38.950Z,0
2018-07-10T01:22:39.191Z,0
2018-07-10T01:23:39.191Z,0
2018-07-10T01:24:39.187Z,0
2018-07-10T01:25:39.184Z,0
2018-07-10T01:26:38.937Z,0
2018-07-10T01:27:38.920Z,0
2018-07-10T01:28:39.170Z,0
2018-07-10T01:29:38.908Z,0
2018-07-10T01:30:39.162Z,0
2018-07-10T01:31:39.155Z,0
2018-07-10T01:32:39.144Z,0
2018-07-10T01:33:39.305Z,0
2018-07-10T01:34:39.150Z,0
2018-07-10T01:35:38.893Z,0
2018-07-10T01:36:39.133Z,0
2018-07-10T01:37:38.885Z,0
2018-07-10T01:38:38.875Z,0
2018-07-10T01:39:39.119Z,0
2018-07-10T01:40:38.613Z,0
2018-07-10T01:41:39.126Z,0
2018-07-10T01:42:38.856Z,0
2018-07-10T01:43:39.108Z,0
2018-07-10T01:44:39.095Z,0
2018-07-10T01:45:39.095Z,0
2018-07-10T01:46:38.585Z,0
2018-07-10T01:47:39.089Z,0
2018-07-10T01:48:38.830Z,0
2018-07-10T01:49:38.583Z,0
2018-07-10T01:50:38.821Z,0
2018-07-10T01:51:39.064Z,0
2018-07-10T01:52:39.092Z,0
2018-07-10T01:53:38.818Z,0
2018-07-10T01:54:39.057Z,0
2018-07-10T01:55:39.071Z,0
2018-07-10T01:56:39.763Z,0
2018-07-10T01:57:38.796Z,0
2018-07-10T01:58:39.040Z,0
2018-07-10T01:59:38.783Z,0
2018-07-10T02:00:38.780Z,0
2018-07-10T02:01:39.033Z,0
2018-07-10T02:02:38.766Z,0
2018-07-10T02:03:39.013Z,0
2018-07-10T02:04:39.010Z,0
2018-07-10T02:05:39.004Z,0
2018-07-10T02:06:38.751Z,0
2018-07-10T02:07:39.011Z,0
2018-07-10T02:08:38.988Z,0
2018-07-10T02:09:38.738Z,0
2018-07-10T02:10:38.983Z,0
2018-07-10T02:11:38.977Z,0
2018-07-10T02:12:38.973Z,0
2018-07-10T02:13:38.981Z,0
2018-07-10T02:14:38.967Z,0
2018-07-10T02:15:38.956Z,0
2018-07-10T02:16:38.705Z,0
2018-07-10T02:17:38.694Z,0
2018-07-10T02:18:38.688Z,0
2018-07-10T02:19:38.936Z,0
2018-07-10T02:20:38.933Z,0
2018-07-10T02:21:38.930Z,0
2018-07-10T02:22:38.930Z,0
2018-07-10T02:23:38.683Z,0
2018-07-10T02:24:38.931Z,0
2018-07-10T02:25:38.912Z,0
2018-07-10T02:26:38.904Z,0
2018-07-10T02:27:38.897Z,0
2018-07-10T02:28:38.646Z,0
2018-07-10T02:29:38.899Z,0
2018-07-10T02:30:38.891Z,0
2018-07-10T02:31:38.963Z,0
2018-07-10T02:32:38.884Z,0
2018-07-10T02:33:38.881Z,0
2018-07-10T02:34:38.869Z,0
2018-07-10T02:35:38.366Z,0
2018-07-10T02:36:38.877Z,0
2018-07-10T02:37:38.859Z,0
2018-07-10T02:38:38.863Z,0
2018-07-10T02:39:38.854Z,0
2018-07-10T02:40:38.839Z,0
2018-07-10T02:41:38.839Z,0
2018-07-10T02:42:38.846Z,0
2018-07-10T02:43:38.587Z,0
2018-07-10T02:44:38.819Z,0
2018-07-10T02:45:38.582Z,0
2018-07-10T02:46:38.817Z,0
2018-07-10T02:47:38.572Z,0
2018-07-10T02:48:38.566Z,0
2018-07-10T02:49:38.804Z,0
2018-07-10T02:50:38.544Z,0
2018-07-10T02:51:38.801Z,0
2018-07-10T02:52:38.540Z,0
2018-07-10T02:53:38.536Z,0
2018-07-10T02:54:38.526Z,0
2018-07-10T02:55:38.566Z,0
2018-07-10T02:56:38.768Z,5
2018-07-10T02:57:38.755Z,5
2018-07-10T02:58:39.004Z,5
2018-07-10T02:59:38.499Z,5
2018-07-10T03:00:38.509Z,5
2018-07-10T03:01:38.254Z,5
2018-07-10T03:02:38.745Z,5
2018-07-10T03:03:38.490Z,5
2018-07-10T03:04:38.486Z,5
2018-07-10T03:05:38.230Z,5
2018-07-10T03:06:38.733Z,5
2018-07-10T03:07:38.493Z,5
2018-07-10T03:08:38.474Z,5
2018-07-10T03:09:38.713Z,5
2018-07-10T03:10:38.697Z,5
2018-07-10T03:11:38.455Z,5
2018-07-10T03:12:38.682Z,10
2018-07-10T03:13:38.681Z,10
2018-07-10T03:14:38.681Z,10
2018-07-10T03:15:38.676Z,10
2018-07-10T03:16:38.892Z,10
2018-07-10T03:17:38.710Z,10
2018-07-10T03:18:38.680Z,10
2018-07-10T03:19:38.663Z,10
2018-07-10T03:20:38.650Z,10
2018-07-10T03:21:38.655Z,10
2018-07-10T03:22:38.655Z,10
2018-07-10T03:23:38.392Z,15
2018-07-10T03:24:38.404Z,15
2018-07-10T03:25:38.119Z,15
2018-07-10T03:26:38.625Z,15
2018-07-10T03:27:38.622Z,15
2018-07-10T03:28:38.355Z,15
2018-07-10T03:29:38.601Z,15
2018-07-10T03:30:38.612Z,20
2018-07-10T03:31:38.600Z,20
2018-07-10T03:32:38.593Z,20
2018-07-10T03:33:38.083Z,20
2018-07-10T03:34:38.329Z,20
2018-07-10T03:35:38.580Z,25
2018-07-10T03:36:38.590Z,25
2018-07-10T03:37:38.311Z,30
2018-07-10T03:38:38.562Z,30
2018-07-10T03:39:38.305Z,35
2018-07-10T03:40:38.323Z,35
2018-07-10T03:41:38.553Z,35
2018-07-10T03:42:38.552Z,35
2018-07-10T03:43:38.540Z,40
2018-07-10T03:44:38.328Z,45
2018-07-10T03:45:38.277Z,50
2018-07-10T03:46:38.526Z,55
2018-07-10T03:47:38.529Z,55
2018-07-10T03:48:38.015Z,50
2018-07-10T03:49:38.012Z,50
2018-07-10T03:50:37.999Z,50
2018-07-10T03:51:38.497Z,45
2018-07-10T03:52:38.238Z,45
2018-07-10T03:53:38.244Z,40
2018-07-10T03:54:38.481Z,40
2018-07-10T03:55:38.230Z,35
2018-07-10T03:56:37.976Z,35
2018-07-10T03:57:38.470Z,35
2018-07-10T03:58:38.468Z,35
2018-07-10T03:59:38.458Z,35
2018-07-10T04:00:38.201Z,35
2018-07-10T04:01:38.889Z,35
2018-07-10T04:02:38.449Z,35
2018-07-10T04:03:38.448Z,35
2018-07-10T04:04:38.184Z,35
2018-07-10T04:05:38.437Z,35
2018-07-10T04:06:38.422Z,35
2018-07-10T04:07:38.423Z,35
2018-07-10T04:08:38.164Z,40
2018-07-10T04:09:38.415Z,40
2018-07-10T04:10:38.157Z,40
2018-07-10T04:11:37.962Z,45
2018-07-10T04:12:38.404Z,40
2018-07-10T04:13:38.391Z,40
2018-07-10T04:14:38.143Z,45
2018-07-10T04:15:38.391Z,45
2018-07-10T04:16:38.393Z,50
2018-07-10T04:17:38.128Z,50
2018-07-10T04:18:38.134Z,55
2018-07-10T04:19:37.864Z,55
2018-07-10T04:20:38.361Z,50
2018-07-10T04:21:38.355Z,50
2018-07-10T04:22:38.361Z,45
2018-07-10T04:23:38.362Z,45
2018-07-10T04:24:38.355Z,45
2018-07-10T04:25:38.345Z,45
2018-07-10T04:26:38.337Z,45
2018-07-10T04:27:38.334Z,45
2018-07-10T04:28:38.343Z,50
2018-07-10T04:29:38.072Z,55
2018-07-10T04:30:38.085Z,60
2018-07-10T04:31:37.813Z,65
2018-07-10T04:32:38.307Z,65
2018-07-10T04:33:38.059Z,65
2018-07-10T04:34:38.053Z,65
2018-07-10T04:35:38.053Z,65
2018-07-10T04:36:38.053Z,60
2018-07-10T04:37:38.297Z,60
2018-07-10T04:38:38.301Z,60
2018-07-10T04:39:38.282Z,60
2018-07-10T04:40:38.272Z,65
2018-07-10T04:41:38.075Z,70
2018-07-10T04:42:38.410Z,75
2018-07-10T04:43:38.272Z,80
2018-07-10T04:44:38.261Z,85
2018-07-10T04:45:38.259Z,80
2018-07-10T04:46:38.257Z,75
2018-07-10T04:47:38.247Z,75
2018-07-10T04:48:37.740Z,75
2018-07-10T04:49:38.382Z,85
2018-07-10T04:50:38.242Z,85
2018-07-10T04:51:38.235Z,85
2018-07-10T04:52:38.228Z,85
2018-07-10T04:53:37.721Z,90
2018-07-10T04:54:38.222Z,85
2018-07-10T04:55:38.126Z,85
2018-07-10T04:56:38.215Z,80
2018-07-10T04:57:38.265Z,75
2018-07-10T04:58:37.958Z,70
2018-07-10T04:59:37.970Z,70
2018-07-10T05:00:37.700Z,75
2018-07-10T05:01:38.230Z,75
2018-07-10T05:02:38.191Z,80
2018-07-10T05:03:38.443Z,80
2018-07-10T05:04:37.682Z,80
2018-07-10T05:05:38.189Z,80
2018-07-10T05:06:38.185Z,75
2018-07-10T05:07:38.180Z,80
2018-07-10T05:08:38.170Z,85
2018-07-10T05:09:37.925Z,85
2018-07-10T05:10:37.920Z,90
2018-07-10T05:11:37.659Z,85
2018-07-10T05:12:38.160Z,85
2018-07-10T05:13:37.957Z,90
2018-07-10T05:14:38.149Z,100
2018-07-10T05:15:38.150Z,100
2018-07-10T05:16:38.141Z,100
2018-07-10T05:17:38.271Z,100
2018-07-10T05:18:37.887Z,100
2018-07-10T05:19:37.890Z,100
2018-07-10T05:20:37.895Z,100
2018-07-10T05:21:38.132Z,105
2018-07-10T05:22:38.121Z,105
2018-07-10T05:23:38.116Z,105
2018-07-10T05:24:37.609Z,100
2018-07-10T05:25:37.858Z,95
2018-07-10T05:26:37.855Z,95
2018-07-10T05:27:37.852Z,95
2018-07-10T05:28:38.115Z,100
2018-07-10T05:29:38.102Z,105
2018-07-10T05:30:37.846Z,105
2018-07-10T05:31:37.841Z,105
2018-07-10T05:32:37.845Z,105
2018-07-10T05:33:37.595Z,110
2018-07-10T05:34:38.075Z,115
2018-07-10T05:35:38.077Z,120
2018-07-10T05:36:38.077Z,115
2018-07-10T05:37:38.082Z,110
2018-07-10T05:38:38.067Z,105
2018-07-10T05:39:38.074Z,100
2018-07-10T05:40:38.062Z,100
2018-07-10T05:41:37.554Z,100
2018-07-10T05:42:37.550Z,105
2018-07-10T05:43:37.793Z,100
2018-07-10T05:44:37.551Z,100
2018-07-10T05:45:38.092Z,95
2018-07-10T05:46:38.328Z,90
2018-07-10T05:47:38.038Z,90
2018-07-10T05:48:38.042Z,95
2018-07-10T05:49:38.035Z,85
2018-07-10T05:50:37.774Z,80
2018-07-10T05:51:38.025Z,75
2018-07-10T05:52:37.779Z,75
2018-07-10T05:53:37.760Z,70
2018-07-10T05:54:37.756Z,70
2018-07-10T05:55:38.007Z,65
2018-07-10T05:56:37.753Z,70
2018-07-10T05:57:37.995Z,70
2018-07-10T05:58:38.382Z,75
2018-07-10T05:59:38.010Z,80
2018-07-10T06:00:38.018Z,80
2018-07-10T06:01:37.778Z,85
2018-07-10T06:02:37.756Z,90
2018-07-10T06:03:37.977Z,105
2018-07-10T06:04:37.927Z,115
2018-07-10T06:05:38.227Z,135
2018-07-10T06:06:37.978Z,140
2018-07-10T06:07:37.710Z,145
2018-07-10T06:08:37.961Z,140
2018-07-10T06:09:37.701Z,135
2018-07-10T06:10:38.442Z,125
2018-07-10T06:11:37.946Z,125
2018-07-10T06:12:37.710Z,120
2018-07-10T06:13:37.698Z,120
2018-07-10T06:14:37.684Z,115
2018-07-10T06:15:37.681Z,115
2018-07-10T06:16:37.714Z,125
2018-07-10T06:17:37.680Z,140
2018-07-10T06:18:37.667Z,150
2018-07-10T06:19:37.671Z,155
2018-07-10T06:20:37.667Z,160
2018-07-10T06:21:37.665Z,170
2018-07-10T06:22:37.659Z,190
2018-07-10T06:23:37.655Z,205
2018-07-10T06:24:37.903Z,225
2018-07-10T06:25:37.929Z,240
2018-07-10T06:26:37.901Z,245
2018-07-10T06:27:37.634Z,240
2018-07-10T06:28:37.884Z,235
2018-07-10T06:29:37.672Z,235
2018-07-10T06:30:37.551Z,235
2018-07-10T06:31:37.873Z,240
2018-07-10T06:32:37.375Z,250
2018-07-10T06:33:37.617Z,270
2018-07-10T06:34:37.620Z,280
2018-07-10T06:35:37.611Z,300
2018-07-10T06:36:38.106Z,310
2018-07-10T06:37:37.874Z,315
2018-07-10T06:38:37.621Z,315
2018-07-10T06:39:37.879Z,315
2018-07-10T06:40:37.843Z,325
2018-07-10T06:41:37.596Z,325
2018-07-10T06:42:37.587Z,320
2018-07-10T06:43:37.843Z,320
2018-07-10T06:44:37.836Z,315
2018-07-10T06:45:37.838Z,310
2018-07-10T06:46:37.830Z,295
2018-07-10T06:47:37.848Z,280
2018-07-10T06:48:37.707Z,270
2018-07-10T06:49:37.880Z,265
2018-07-10T06:50:37.572Z,265
2018-07-10T06:51:37.844Z,265
2018-07-10T06:52:38.432Z,270
2018-07-10T06:53:38.512Z,275
2018-07-10T06:54:37.572Z,290
2018-07-10T06:55:37.561Z,285
2018-07-10T06:56:37.801Z,270
2018-07-10T06:57:37.806Z,250
2018-07-10T06:58:37.553Z,250
2018-07-10T06:59:37.821Z,240
2018-07-10T07:00:37.695Z,230
2018-07-10T07:01:37.792Z,220
2018-07-10T07:02:37.534Z,215
2018-07-10T07:03:37.783Z,215
2018-07-10T07:04:37.541Z,205
2018-07-10T07:05:37.790Z,200
2018-07-10T07:06:37.776Z,200
2018-07-10T07:07:37.388Z,200
2018-07-10T07:08:37.789Z,200
2018-07-10T07:09:37.768Z,200
2018-07-10T07:10:37.542Z,205
2018-07-10T07:11:37.526Z,215
2018-07-10T07:12:37.793Z,225
2018-07-10T07:13:37.789Z,235
2018-07-10T07:14:37.755Z,240
2018-07-10T07:15:37.517Z,255
2018-07-10T07:16:37.754Z,265
2018-07-10T07:17:37.507Z,280
2018-07-10T07:18:37.505Z,285
2018-07-10T07:19:37.767Z,285
2018-07-10T07:20:37.768Z,285
2018-07-10T07:21:37.241Z,295
2018-07-10T07:22:37.269Z,300
2018-07-10T07:23:37.494Z,310
2018-07-10T07:24:37.752Z,320
2018-07-10T07:25:37.758Z,315
2018-07-10T07:26:37.493Z,310
2018-07-10T07:27:37.225Z,285
2018-07-10T07:28:37.498Z,270
2018-07-10T07:29:37.722Z,275
2018-07-10T07:30:37.737Z,295
2018-07-10T07:31:37.722Z,310
2018-07-10T07:32:37.752Z,315
2018-07-10T07:33:37.463Z,320
2018-07-10T07:34:37.721Z,335
2018-07-10T07:35:37.713Z,340
2018-07-10T07:36:37.463Z,340
2018-07-10T07:37:36.955Z,345
2018-07-10T07:38:37.448Z,350
2018-07-10T07:39:37.979Z,360
2018-07-10T07:40:37.199Z,370
2018-07-10T07:41:37.713Z,380
2018-07-10T07:42:37.736Z,395
2018-07-10T07:43:37.482Z,415
2018-07-10T07:44:37.561Z,435
2018-07-10T07:45:37.483Z,470
2018-07-10T07:46:37.444Z,485
2018-07-10T07:47:37.740Z,520
2018-07-10T07:48:37.705Z,560
2018-07-10T07:49:37.440Z,590
2018-07-10T07:50:37.676Z,600
2018-07-10T07:51:37.418Z,620
2018-07-10T07:52:37.764Z,650
2018-07-10T07:53:37.679Z,725
2018-07-10T07:54:37.688Z,925
2018-07-10T07:55:37.414Z,680
2018-07-10T07:56:37.163Z,590
2018-07-10T07:57:37.424Z,535
2018-07-10T07:58:37.602Z,495
2018-07-10T07:59:37.734Z,460
2018-07-10T08:00:38.000Z,420
2018-07-10T08:01:37.413Z,400
2018-07-10T08:02:37.466Z,390
2018-07-10T08:03:37.655Z,405
2018-07-10T08:04:37.671Z,415
2018-07-10T08:05:37.666Z,415
2018-07-10T08:06:37.669Z,415
2018-07-10T08:07:37.679Z,405
2018-07-10T08:08:37.662Z,400
2018-07-10T08:09:37.682Z,395
2018-07-10T08:10:37.664Z,400
2018-07-10T08:11:37.147Z,410
2018-07-10T08:12:37.668Z,435
2018-07-10T08:13:37.403Z,450
2018-07-10T08:14:37.410Z,435
2018-07-10T08:15:37.665Z,395
2018-07-10T08:16:37.648Z,355
2018-07-10T08:17:37.419Z,315
2018-07-10T08:18:37.394Z,295
2018-07-10T08:19:37.404Z,285
2018-07-10T08:20:37.136Z,265
2018-07-10T08:21:37.142Z,240
2018-07-10T08:22:37.642Z,230
2018-07-10T08:23:37.131Z,230
2018-07-10T08:24:37.954Z,235
2018-07-10T08:25:37.641Z,250
2018-07-10T08:26:37.641Z,265
2018-07-10T08:27:37.389Z,290
2018-07-10T08:28:37.132Z,315
2018-07-10T08:29:37.376Z,335
2018-07-10T08:30:37.126Z,355
2018-07-10T08:31:37.126Z,360
2018-07-10T08:32:37.374Z,350
2018-07-10T08:33:37.972Z,340
2018-07-10T08:34:37.154Z,340
2018-07-10T08:35:37.625Z,360
2018-07-10T08:36:37.160Z,365
2018-07-10T08:37:37.366Z,360
2018-07-10T08:38:37.110Z,365
2018-07-10T08:39:37.382Z,405
2018-07-10T08:40:37.358Z,460
2018-07-10T08:41:37.617Z,505
2018-07-10T08:42:37.618Z,535
2018-07-10T08:43:37.613Z,545
2018-07-10T08:44:37.627Z,535
2018-07-10T08:45:37.611Z,515
2018-07-10T08:46:37.351Z,510
2018-07-10T08:47:37.606Z,515
2018-07-10T08:48:37.348Z,520
2018-07-10T08:49:37.611Z,525
2018-07-10T08:50:37.669Z,525
2018-07-10T08:51:37.590Z,540
2018-07-10T08:52:37.612Z,540
2018-07-10T08:53:37.347Z,550
2018-07-10T08:54:37.334Z,555
2018-07-10T08:55:37.592Z,570
2018-07-10T08:56:37.632Z,575
2018-07-10T08:57:37.596Z,570
2018-07-10T08:58:37.330Z,565
2018-07-10T08:59:37.341Z,560
2018-07-10T09:00:37.610Z,585
2018-07-10T09:01:37.348Z,620
2018-07-10T09:02:37.085Z,640
2018-07-10T09:03:37.073Z,640
2018-07-10T09:04:37.088Z,645
2018-07-10T09:05:37.577Z,650
2018-07-10T09:06:37.579Z,635
2018-07-10T09:07:37.584Z,625
2018-07-10T09:08:37.620Z,615
2018-07-10T09:09:37.359Z,620
2018-07-10T09:10:37.358Z,625
2018-07-10T09:11:37.664Z,615
2018-07-10T09:12:37.901Z,605
2018-07-10T09:13:37.329Z,590
2018-07-10T09:14:37.582Z,575
2018-07-10T09:15:37.593Z,565
2018-07-10T09:16:37.341Z,565
2018-07-10T09:17:37.585Z,570
2018-07-10T09:18:37.569Z,565
2018-07-10T09:19:37.327Z,565
2018-07-10T09:20:37.615Z,575
2018-07-10T09:21:37.573Z,575
2018-07-10T09:22:37.580Z,595
2018-07-10T09:23:37.579Z,640
2018-07-10T09:24:37.326Z,685
2018-07-10T09:25:37.470Z,705
2018-07-10T09:26:37.331Z,725
2018-07-10T09:27:37.579Z,785
2018-07-10T09:28:37.587Z,845
2018-07-10T09:29:37.336Z,905
2018-07-10T09:30:37.597Z,965
2018-07-10T09:31:37.367Z,1000
2018-07-10T09:32:37.589Z,1015
2018-07-10T09:33:37.757Z,1050
2018-07-10T09:34:36.865Z,1050
2018-07-10T09:35:37.354Z,1010
2018-07-10T09:36:37.606Z,1000
2018-07-10T09:37:37.379Z,960
2018-07-10T09:38:37.377Z,935
2018-07-10T09:39:37.594Z,920
2018-07-10T09:40:37.356Z,900
2018-07-10T09:41:37.616Z,880
2018-07-10T09:42:37.092Z,855
2018-07-10T09:43:37.140Z,840
2018-07-10T09:44:37.597Z,815
2018-07-10T09:45:37.347Z,795
2018-07-10T09:46:37.368Z,790
2018-07-10T09:47:37.630Z,805
2018-07-10T09:48:37.361Z,845
2018-07-10T09:49:37.359Z,860
2018-07-10T09:50:38.024Z,860
2018-07-10T09:51:37.615Z,855
2018-07-10T09:52:37.383Z,850
2018-07-10T09:53:37.393Z,845
2018-07-10T09:54:37.752Z,845
2018-07-10T09:55:37.638Z,855
2018-07-10T09:56:37.709Z,875
2018-07-10T09:57:37.431Z,890
2018-07-10T09:58:37.655Z,890
2018-07-10T09:59:37.399Z,870
2018-07-10T10:00:37.397Z,820
2018-07-10T10:01:37.672Z,790
2018-07-10T10:02:37.166Z,800
2018-07-10T10:03:37.403Z,820
2018-07-10T10:04:37.402Z,835
2018-07-10T10:05:37.670Z,855
2018-07-10T10:06:37.675Z,855
2018-07-10T10:07:37.700Z,860
2018-07-10T10:08:37.999Z,850
2018-07-10T10:09:37.700Z,825
2018-07-10T10:10:37.224Z,815
2018-07-10T10:11:37.684Z,805
2018-07-10T10:12:37.694Z,795
2018-07-10T10:13:37.439Z,840
2018-07-10T10:14:37.225Z,860
2018-07-10T10:15:37.698Z,835
2018-07-10T10:16:37.708Z,800
2018-07-10T10:17:37.721Z,785
2018-07-10T10:18:37.768Z,815
2018-07-10T10:19:37.452Z,830
2018-07-10T10:20:37.729Z,845
2018-07-10T10:21:37.473Z,860
2018-07-10T10:22:37.476Z,870
2018-07-10T10:23:37.481Z,865
2018-07-10T10:24:37.744Z,880
2018-07-10T10:25:37.236Z,870
2018-07-10T10:26:37.740Z,880
2018-07-10T10:27:37.495Z,890
2018-07-10T10:28:37.744Z,870
2018-07-10T10:29:37.501Z,845
2018-07-10T10:30:37.000Z,815
2018-07-10T10:31:37.787Z,775
2018-07-10T10:32:37.763Z,735
2018-07-10T10:33:37.272Z,735
2018-07-10T10:34:37.801Z,730
2018-07-10T10:35:37.797Z,705
2018-07-10T10:36:37.803Z,695
2018-07-10T10:37:37.530Z,695
2018-07-10T10:38:37.602Z,685
2018-07-10T10:39:37.541Z,685
2018-07-10T10:40:37.915Z,690
2018-07-10T10:41:38.244Z,685
2018-07-10T10:42:37.553Z,685
2018-07-10T10:43:37.804Z,690
2018-07-10T10:44:37.565Z,700
2018-07-10T10:45:38.048Z,700
2018-07-10T10:46:38.308Z,690
2018-07-10T10:47:37.571Z,685
2018-07-10T10:48:37.828Z,670
2018-07-10T10:49:37.659Z,660
2018-07-10T10:50:37.575Z,660
2018-07-10T10:51:37.577Z,660
2018-07-10T10:52:37.606Z,660
2018-07-10T10:53:37.617Z,655
2018-07-10T10:54:37.619Z,645
2018-07-10T10:55:37.878Z,630
2018-07-10T10:56:37.448Z,615
2018-07-10T10:57:37.610Z,595
2018-07-10T10:58:37.641Z,585
2018-07-10T10:59:37.626Z,585
2018-07-10T11:00:37.907Z,600
2018-07-10T11:01:37.904Z,620
2018-07-10T11:02:38.026Z,650
2018-07-10T11:03:37.888Z,690
2018-07-10T11:04:37.384Z,735
2018-07-10T11:05:37.639Z,780
2018-07-10T11:06:37.883Z,785
2018-07-10T11:07:37.899Z,780
2018-07-10T11:08:37.909Z,785
2018-07-10T11:09:37.902Z,800
2018-07-10T11:10:37.911Z,815
2018-07-10T11:11:37.648Z,830
2018-07-10T11:12:37.958Z,840
2018-07-10T11:13:37.390Z,840
2018-07-10T11:14:37.413Z,840
2018-07-10T11:15:38.006Z,840
2018-07-10T11:16:37.915Z,835
2018-07-10T11:17:38.165Z,840
2018-07-10T11:18:37.927Z,845
2018-07-10T11:19:37.924Z,845
2018-07-10T11:20:37.671Z,845
2018-07-10T11:21:37.668Z,845
2018-07-10T11:22:37.925Z,855
2018-07-10T11:23:37.671Z,845
2018-07-10T11:24:37.426Z,825
2018-07-10T11:25:37.430Z,805
2018-07-10T11:26:37.939Z,790
2018-07-10T11:27:37.936Z,775
2018-07-10T11:28:37.940Z,750
2018-07-10T11:29:37.188Z,745
2018-07-10T11:30:38.290Z,750
2018-07-10T11:31:37.792Z,765
2018-07-10T11:32:37.703Z,775
2018-07-10T11:33:37.714Z,765
2018-07-10T11:34:37.986Z,725
2018-07-10T11:35:37.992Z,695
2018-07-10T11:36:37.978Z,675
2018-07-10T11:37:37.967Z,660
2018-07-10T11:38:37.740Z,645
2018-07-10T11:39:37.477Z,625
2018-07-10T11:40:38.018Z,605
2018-07-10T11:41:37.732Z,580
2018-07-10T11:42:37.741Z,565
2018-07-10T11:43:37.816Z,555
2018-07-10T11:44:38.001Z,555
2018-07-10T11:45:38.116Z,545
2018-07-10T11:46:38.057Z,545
2018-07-10T11:47:37.511Z,545
2018-07-10T11:48:38.011Z,545
2018-07-10T11:49:37.762Z,540
2018-07-10T11:50:37.556Z,530
2018-07-10T11:51:38.373Z,515
2018-07-10T11:52:37.541Z,500
2018-07-10T11:53:37.788Z,495
2018-07-10T11:54:37.781Z,490
2018-07-10T11:55:37.784Z,495
2018-07-10T11:56:38.068Z,495
2018-07-10T11:57:38.046Z,490
2018-07-10T11:58:38.050Z,490
2018-07-10T11:59:37.806Z,490
2018-07-10T12:00:37.797Z,495
2018-07-10T12:01:37.804Z,490
2018-07-10T12:02:37.795Z,485
2018-07-10T12:03:38.067Z,475
2018-07-10T12:04:37.559Z,455
2018-07-10T12:05:37.582Z,435
2018-07-10T12:06:37.551Z,425
2018-07-10T12:07:37.821Z,415
2018-07-10T12:08:38.071Z,400
2018-07-10T12:09:37.839Z,395
2018-07-10T12:10:37.809Z,385
2018-07-10T12:11:38.084Z,390
2018-07-10T12:12:38.033Z,405
2018-07-10T12:13:37.835Z,435
2018-07-10T12:14:37.826Z,480
2018-07-10T12:15:38.068Z,525
2018-07-10T12:16:38.486Z,580
2018-07-10T12:17:37.834Z,600
2018-07-10T12:18:37.839Z,610
2018-07-10T12:19:38.348Z,605
2018-07-10T12:20:38.118Z,575
2018-07-10T12:21:37.839Z,545
2018-07-10T12:22:37.317Z,510
2018-07-10T12:23:37.582Z,480
2018-07-10T12:24:37.827Z,455
2018-07-10T12:25:37.586Z,430
2018-07-10T12:26:38.128Z,400
2018-07-10T12:27:37.839Z,385
2018-07-10T12:28:37.577Z,385
2018-07-10T12:29:38.070Z,390
2018-07-10T12:30:38.067Z,405
2018-07-10T12:31:37.572Z,415
2018-07-10T12:32:37.820Z,410
2018-07-10T12:33:38.075Z,400
2018-07-10T12:34:38.071Z,395
2018-07-10T12:35:37.843Z,410
2018-07-10T12:36:37.830Z,425
2018-07-10T12:37:37.840Z,440
2018-07-10T12:38:38.067Z,450
2018-07-10T12:39:37.826Z,460
2018-07-10T12:40:37.847Z,475
2018-07-10T12:41:38.209Z,490
2018-07-10T12:42:37.826Z,505
2018-07-10T12:43:38.067Z,520
2018-07-10T12:44:37.836Z,555
2018-07-10T12:45:37.821Z,620
2018-07-10T12:46:38.096Z,680
2018-07-10T12:47:37.823Z,720
2018-07-10T12:48:38.071Z,730
2018-07-10T12:49:38.413Z,750
2018-07-10T12:50:37.832Z,750
2018-07-10T12:51:38.341Z,725
2018-07-10T12:52:37.580Z,690
2018-07-10T12:53:37.818Z,655
2018-07-10T12:54:38.068Z,630
2018-07-10T12:55:37.817Z,625
2018-07-10T12:56:37.820Z,640
2018-07-10T12:57:38.108Z,635
2018-07-10T12:58:37.810Z,625
2018-07-10T12:59:38.065Z,630
2018-07-10T13:00:38.086Z,610
2018-07-10T13:01:38.086Z,590
2018-07-10T13:02:38.107Z,570
2018-07-10T13:03:38.083Z,545
2018-07-10T13:04:37.941Z,515
2018-07-10T13:05:38.073Z,480
2018-07-10T13:06:37.597Z,450
2018-07-10T13:07:38.105Z,420
2018-07-10T13:08:38.084Z,400
2018-07-10T13:09:37.813Z,370
2018-07-10T13:10:37.826Z,360
2018-07-10T13:11:37.849Z,345
2018-07-10T13:12:37.834Z,345
2018-07-10T13:13:38.093Z,340
2018-07-10T13:14:38.110Z,350
2018-07-10T13:15:38.090Z,350
2018-07-10T13:16:38.110Z,355
2018-07-10T13:17:37.832Z,360
2018-07-10T13:18:38.405Z,370
2018-07-10T13:19:37.839Z,380
2018-07-10T13:20:37.901Z,385
2018-07-10T13:21:38.145Z,385
2018-07-10T13:22:38.339Z,380
2018-07-10T13:23:37.837Z,375
2018-07-10T13:24:37.368Z,390
2018-07-10T13:25:38.098Z,400
2018-07-10T13:26:38.077Z,415
2018-07-10T13:27:38.127Z,435
2018-07-10T13:28:37.949Z,450
2018-07-10T13:29:38.184Z,455
2018-07-10T13:30:37.852Z,455
2018-07-10T13:31:37.855Z,450
2018-07-10T13:32:37.918Z,445
2018-07-10T13:33:37.679Z,430
2018-07-10T13:34:37.905Z,430
2018-07-10T13:35:37.915Z,420
2018-07-10T13:36:37.950Z,415
2018-07-10T13:37:38.193Z,415
2018-07-10T13:38:38.259Z,400
2018-07-10T13:39:37.664Z,395
2018-07-10T13:40:37.869Z,385
2018-07-10T13:41:37.865Z,375
2018-07-10T13:42:37.313Z,360
2018-07-10T13:43:37.834Z,350
2018-07-10T13:44:37.804Z,340
2018-07-10T13:45:37.555Z,330
2018-07-10T13:46:37.593Z,330
2018-07-10T13:47:37.815Z,345
2018-07-10T13:48:37.555Z,360
2018-07-10T13:49:38.115Z,375
2018-07-10T13:50:38.107Z,385
2018-07-10T13:51:37.840Z,390
2018-07-10T13:52:37.841Z,390
2018-07-10T13:53:37.593Z,390
2018-07-10T13:54:37.811Z,385
2018-07-10T13:55:38.334Z,375
2018-07-10T13:56:37.553Z,365
2018-07-10T13:57:37.554Z,355
2018-07-10T13:58:37.560Z,345
2018-07-10T13:59:37.541Z,340
2018-07-10T14:00:37.795Z,340
2018-07-10T14:01:37.317Z,345
2018-07-10T14:02:37.805Z,345
2018-07-10T14:03:37.798Z,350
2018-07-10T14:04:37.583Z,345